createdAt,value
2023-05-05T00:00:00.529Z,101579.88
2023-05-05T00:02:30.394Z,101575.48
2023-05-05T00:05:00.328Z,101575.76
2023-05-05T00:07:30.297Z,101573.62
2023-05-05T00:09:59.933Z,101578.22
2023-05-05T00:12:30.318Z,101575.15
2023-05-05T00:15:00.375Z,101574.80
2023-05-05T00:17:30.334Z,101569.49
2023-05-05T00:20:00.148Z,101570.10
2023-05-05T00:22:30.234Z,101570.15
2023-05-05T00:25:00.051Z,101569.21
2023-05-05T00:27:29.819Z,101564.13
2023-05-05T00:29:59.656Z,101565.98
2023-05-05T00:32:29.446Z,101566.86
2023-05-05T00:35:00.156Z,101561.88
2023-05-05T00:37:29.371Z,101558.08
2023-05-05T00:39:59.368Z,101555.69
2023-05-05T00:42:40.484Z,101553.52
2023-05-05T00:45:10.414Z,101551.21
2023-05-05T00:47:41.777Z,101547.55
2023-05-05T00:50:21.627Z,101546.85
2023-05-05T00:52:54.249Z,101545.60
2023-05-05T00:55:24.653Z,101542.61
2023-05-05T00:57:55.104Z,101543.53
2023-05-05T01:00:27.173Z,101544.36
2023-05-05T01:02:57.367Z,101538.52
2023-05-05T01:05:38.269Z,101541.43
2023-05-05T01:08:36.675Z,101540.38
2023-05-05T01:11:19.215Z,101544.06
2023-05-05T01:14:12.125Z,101536.69
2023-05-05T01:17:10.376Z,101536.54
2023-05-05T01:20:05.734Z,101538.31
2023-05-05T01:22:47.584Z,101538.31
2023-05-05T01:25:41.537Z,101533.88
2023-05-05T01:28:48.534Z,101534.90
2023-05-05T01:32:00.869Z,101532.99
2023-05-05T01:35:08.341Z,101530.23
2023-05-05T01:37:50.450Z,101531.11
2023-05-05T01:40:27.537Z,101529.98
2023-05-05T01:43:01.711Z,101532.77
2023-05-05T01:45:38.138Z,101529.86
2023-05-05T01:48:09.557Z,101530.52
2023-05-05T01:50:42.177Z,101531.61
2023-05-05T01:53:13.599Z,101530.50
2023-05-05T01:55:46.216Z,101531.90
2023-05-05T01:58:18.496Z,101528.21
2023-05-05T02:00:50.994Z,101531.06
2023-05-05T02:03:23.528Z,101531.12
2023-05-05T02:05:54.749Z,101532.52
2023-05-05T02:08:26.738Z,101529.92
2023-05-05T02:10:57.661Z,101528.04
2023-05-05T02:13:32.509Z,101527.48
2023-05-05T02:16:06.270Z,101527.29
2023-05-05T02:18:38.837Z,101524.59
2023-05-05T02:21:09.292Z,101524.39
2023-05-05T02:23:39.226Z,101521.71
2023-05-05T02:26:12.200Z,101530.17
2023-05-05T02:29:03.194Z,101530.20
2023-05-05T02:31:39.509Z,101532.44
2023-05-05T02:34:11.293Z,101530.36
2023-05-05T02:36:44.744Z,101533.98
2023-05-05T02:39:47.267Z,101529.45
2023-05-05T02:42:22.863Z,101526.92
2023-05-05T02:44:57.673Z,101525.42
2023-05-05T02:47:39.017Z,101529.21
2023-05-05T02:50:09.167Z,101529.50
2023-05-05T02:52:38.982Z,101526.92
2023-05-05T02:55:09.941Z,101528.23
2023-05-05T02:58:00.637Z,101535.47
2023-05-05T03:00:39.755Z,101538.51
2023-05-05T03:03:25.893Z,101532.84
2023-05-05T03:06:18.074Z,101530.30
2023-05-05T03:09:33.841Z,101528.83
2023-05-05T03:12:20.931Z,101526.20
2023-05-05T03:14:55.699Z,101525.20
2023-05-05T03:17:29.508Z,101524.92
2023-05-05T03:20:02.910Z,101528.50
2023-05-05T03:22:31.198Z,101523.84
2023-05-05T03:24:59.081Z,101518.65
2023-05-05T03:27:27.652Z,101519.33
2023-05-05T03:29:56.574Z,101523.30
2023-05-05T03:32:24.400Z,101525.51
2023-05-05T03:34:52.887Z,101526.04
2023-05-05T03:37:21.179Z,101526.90
2023-05-05T03:39:49.717Z,101521.56
2023-05-05T03:42:18.088Z,101527.15
2023-05-05T03:44:46.492Z,101524.36
2023-05-05T03:47:14.958Z,101523.70
2023-05-05T03:49:43.427Z,101527.98
2023-05-05T03:52:13.837Z,101528.81
2023-05-05T03:54:43.238Z,101526.48
2023-05-05T03:57:11.719Z,101525.31
2023-05-05T03:59:39.999Z,101523.09
2023-05-05T04:02:08.654Z,101521.69
2023-05-05T04:04:37.005Z,101520.79
2023-05-05T04:07:06.161Z,101522.01
2023-05-05T04:09:33.674Z,101522.63
2023-05-05T04:12:03.181Z,101521.70
2023-05-05T04:14:30.871Z,101522.63
2023-05-05T04:16:58.975Z,101520.16
2023-05-05T04:19:27.481Z,101515.09
2023-05-05T04:21:56.116Z,101514.80
2023-05-05T04:24:25.032Z,101516.29
2023-05-05T04:26:53.235Z,101525.48
2023-05-05T04:29:21.197Z,101525.22
2023-05-05T04:31:50.600Z,101526.77
2023-05-05T04:34:17.960Z,101528.77
2023-05-05T04:36:46.334Z,101531.30
2023-05-05T04:39:13.495Z,101529.16
2023-05-05T04:41:41.418Z,101528.80
2023-05-05T04:44:09.850Z,101529.84
2023-05-05T04:46:38.362Z,101535.52
2023-05-05T04:49:07.112Z,101544.58
2023-05-05T04:51:35.189Z,101545.00
2023-05-05T04:54:04.169Z,101544.05
2023-05-05T04:56:32.432Z,101545.00
2023-05-05T04:59:00.492Z,101546.83
2023-05-05T05:01:28.914Z,101548.80
2023-05-05T05:03:57.374Z,101544.95
2023-05-05T05:06:25.784Z,101547.27
2023-05-05T05:08:54.047Z,101543.75
2023-05-05T05:11:22.525Z,101546.23
2023-05-05T05:13:51.013Z,101549.37
2023-05-05T05:16:20.199Z,101551.61
2023-05-05T05:18:47.765Z,101552.35
2023-05-05T05:21:16.271Z,101551.51
2023-05-05T05:23:44.515Z,101548.98
2023-05-05T05:26:12.943Z,101549.98
2023-05-05T05:28:41.706Z,101549.38
2023-05-05T05:31:09.764Z,101555.05
2023-05-05T05:33:38.125Z,101556.52
2023-05-05T05:36:06.791Z,101550.23
2023-05-05T05:38:35.011Z,101547.06
2023-05-05T05:41:07.670Z,101548.23
2023-05-05T05:43:37.364Z,101552.92
2023-05-05T05:46:09.079Z,101549.61
2023-05-05T05:48:39.287Z,101551.68
2023-05-05T05:51:09.023Z,101548.33
2023-05-05T05:53:38.891Z,101544.14
2023-05-05T05:56:09.843Z,101547.83
2023-05-05T05:58:40.491Z,101542.08
2023-05-05T06:01:10.830Z,101539.85
2023-05-05T06:03:40.822Z,101538.95
2023-05-05T06:06:10.632Z,101539.04
2023-05-05T06:08:40.472Z,101538.05
2023-05-05T06:11:10.273Z,101537.77
2023-05-05T06:13:40.072Z,101539.80
2023-05-05T06:16:09.986Z,101542.39
2023-05-05T06:18:39.806Z,101541.80
2023-05-05T06:21:09.557Z,101544.27
2023-05-05T06:23:39.453Z,101541.14
2023-05-05T06:26:09.223Z,101536.70
2023-05-05T06:28:39.376Z,101542.14
2023-05-05T06:31:09.258Z,101541.80
2023-05-05T06:33:39.002Z,101545.15
2023-05-05T06:36:09.395Z,101543.52
2023-05-05T06:38:39.238Z,101542.95
2023-05-05T06:41:08.976Z,101547.19
2023-05-05T06:43:39.369Z,101548.27
2023-05-05T06:46:09.391Z,101550.16
2023-05-05T06:48:39.203Z,101546.27
2023-05-05T06:51:09.986Z,101550.27
2023-05-05T06:53:39.776Z,101549.01
2023-05-05T06:56:09.487Z,101543.40
2023-05-05T06:58:39.297Z,101543.36
2023-05-05T07:01:09.681Z,101547.33
2023-05-05T07:03:39.572Z,101545.47
2023-05-05T07:06:09.511Z,101545.54
2023-05-05T07:08:37.700Z,101542.61
2023-05-05T07:11:07.155Z,101545.00
2023-05-05T07:13:34.756Z,101547.44
2023-05-05T07:16:03.039Z,101550.32
2023-05-05T07:18:31.412Z,101552.31
2023-05-05T07:20:59.960Z,101553.50
2023-05-05T07:23:28.285Z,101554.54
2023-05-05T07:25:56.871Z,101552.10
2023-05-05T07:28:25.109Z,101546.10
2023-05-05T07:30:53.669Z,101546.97
2023-05-05T07:33:22.288Z,101546.59
2023-05-05T07:35:50.653Z,101553.27
2023-05-05T07:38:18.865Z,101554.70
2023-05-05T07:40:47.382Z,101549.85
2023-05-05T07:43:15.790Z,101555.20
2023-05-05T07:45:44.076Z,101554.21
2023-05-05T07:48:12.517Z,101552.57
2023-05-05T07:50:41.148Z,101555.43
2023-05-05T07:53:14.589Z,101552.33
2023-05-05T07:55:44.773Z,101549.93
2023-05-05T07:58:14.567Z,101550.61
2023-05-05T08:00:44.430Z,101550.91
2023-05-05T08:03:14.316Z,101548.55
2023-05-05T08:05:44.178Z,101542.53
2023-05-05T08:08:13.978Z,101544.75
2023-05-05T08:10:43.781Z,101544.09
2023-05-05T08:13:13.612Z,101548.92
2023-05-05T08:15:45.124Z,101544.29
2023-05-05T08:18:15.020Z,101540.64
2023-05-05T08:20:45.429Z,101538.58
2023-05-05T08:23:15.330Z,101539.33
2023-05-05T08:25:45.144Z,101535.94
2023-05-05T08:28:15.054Z,101539.91
2023-05-05T08:30:44.894Z,101539.71
2023-05-05T08:33:14.605Z,101541.84
2023-05-05T08:35:45.862Z,101534.02
2023-05-05T08:38:14.838Z,101532.71
2023-05-05T08:40:45.417Z,101528.77
2023-05-05T08:43:15.952Z,101527.37
2023-05-05T08:45:46.415Z,101523.20
2023-05-05T08:48:20.929Z,101518.38
2023-05-05T08:51:00.810Z,101515.16
2023-05-05T08:53:45.844Z,101514.48
2023-05-05T08:56:16.470Z,101515.38
2023-05-05T08:58:48.549Z,101521.45
2023-05-05T09:01:19.095Z,101523.34
2023-05-05T09:03:49.806Z,101525.66
2023-05-05T09:06:20.339Z,101526.23
2023-05-05T09:08:49.594Z,101523.73
2023-05-05T09:11:17.283Z,101526.55
2023-05-05T09:13:47.538Z,101525.98
2023-05-05T09:16:17.348Z,101525.63
2023-05-05T09:18:47.183Z,101519.12
2023-05-05T09:21:22.849Z,101518.57
2023-05-05T09:24:11.550Z,101523.73
2023-05-05T09:26:47.197Z,101512.05
2023-05-05T09:29:22.334Z,101516.01
2023-05-05T09:32:08.532Z,101514.83
2023-05-05T09:34:37.329Z,101518.55
2023-05-05T09:37:04.475Z,101509.70
2023-05-05T09:39:32.816Z,101505.45
2023-05-05T09:42:03.023Z,101499.48
2023-05-05T09:44:36.370Z,101499.80
2023-05-05T09:47:12.164Z,101499.92
2023-05-05T09:50:01.934Z,101498.59
2023-05-05T09:52:30.239Z,101500.09
2023-05-05T09:55:00.174Z,101499.44
2023-05-05T09:57:33.831Z,101505.40
2023-05-05T10:00:05.783Z,101501.14
2023-05-05T10:02:38.748Z,101499.63
2023-05-05T10:05:17.026Z,101505.27
2023-05-05T10:07:48.229Z,101503.36
2023-05-05T10:10:19.241Z,101498.10
2023-05-05T10:12:50.585Z,101498.14
2023-05-05T10:15:21.408Z,101498.27
2023-05-05T10:18:07.008Z,101499.41
2023-05-05T10:20:39.687Z,101491.36
2023-05-05T10:23:18.378Z,101489.67
2023-05-05T10:26:05.718Z,101491.62
2023-05-05T10:28:45.675Z,101483.37
2023-05-05T10:31:26.875Z,101483.67
2023-05-05T10:34:05.937Z,101478.48
2023-05-05T10:36:39.157Z,101481.20
2023-05-05T10:39:10.951Z,101479.20
2023-05-05T10:41:41.470Z,101477.31
2023-05-05T10:44:13.531Z,101464.34
2023-05-05T10:46:44.828Z,101471.73
2023-05-05T10:49:40.828Z,101468.66
2023-05-05T10:52:35.408Z,101459.28
2023-05-05T10:55:17.982Z,101470.47
2023-05-05T10:57:53.711Z,101462.34
2023-05-05T11:00:38.778Z,101459.60
2023-05-05T11:03:18.000Z,101455.95
2023-05-05T11:06:07.584Z,101456.02
2023-05-05T11:08:42.843Z,101449.88
2023-05-05T11:11:13.345Z,101447.58
2023-05-05T11:13:43.177Z,101443.42
2023-05-05T11:16:47.788Z,101440.23
2023-05-05T11:19:42.911Z,101440.79
2023-05-05T11:22:12.695Z,101439.64
2023-05-05T11:24:42.610Z,101441.33
2023-05-05T11:27:11.542Z,101439.23
2023-05-05T11:30:09.165Z,101440.78
2023-05-05T11:32:39.195Z,101433.27
2023-05-05T11:35:09.035Z,101426.56
2023-05-05T11:37:40.415Z,101427.00
2023-05-05T11:40:27.919Z,101419.07
2023-05-05T11:43:07.507Z,101417.36
2023-05-05T11:45:35.902Z,101416.40
2023-05-05T11:48:29.413Z,101407.98
2023-05-05T11:50:59.095Z,101404.66
2023-05-05T11:53:29.234Z,101400.91
2023-05-05T11:56:10.523Z,101397.36
2023-05-05T11:58:41.564Z,101395.55
2023-05-05T12:01:13.221Z,101387.88
2023-05-05T12:03:45.389Z,101385.58
2023-05-05T12:06:15.570Z,101384.64
2023-05-05T12:08:45.734Z,101382.97
2023-05-05T12:11:15.655Z,101383.48
2023-05-05T12:13:46.424Z,101381.89
2023-05-05T12:16:17.181Z,101379.17
2023-05-05T12:18:46.680Z,101377.25
2023-05-05T12:21:20.797Z,101371.86
2023-05-05T12:23:50.001Z,101369.42
2023-05-05T12:26:31.509Z,101368.60
2023-05-05T12:29:01.603Z,101365.61
2023-05-05T12:31:36.007Z,101368.19
2023-05-05T12:34:08.773Z,101369.42
2023-05-05T12:36:39.945Z,101364.29
2023-05-05T12:39:10.069Z,101371.21
2023-05-05T12:41:40.573Z,101365.69
2023-05-05T12:44:10.617Z,101365.44
2023-05-05T12:46:49.099Z,101358.52
2023-05-05T12:49:19.017Z,101363.08
2023-05-05T12:51:54.942Z,101359.36
2023-05-05T12:54:25.282Z,101357.72
2023-05-05T12:56:59.707Z,101355.42
2023-05-05T12:59:30.715Z,101352.03
2023-05-05T13:02:03.495Z,101351.85
2023-05-05T13:04:31.642Z,101343.57
2023-05-05T13:07:14.129Z,101344.90
2023-05-05T13:09:42.327Z,101338.88
2023-05-05T13:12:15.745Z,101338.84
2023-05-05T13:14:46.635Z,101336.05
2023-05-05T13:17:15.676Z,101329.38
2023-05-05T13:19:46.735Z,101332.64
2023-05-05T13:22:16.903Z,101328.50
2023-05-05T13:24:52.238Z,101317.31
2023-05-05T13:27:22.755Z,101321.88
2023-05-05T13:29:52.725Z,101319.74
2023-05-05T13:32:22.896Z,101318.81
2023-05-05T13:34:52.781Z,101313.80
2023-05-05T13:37:22.623Z,101308.67
2023-05-05T13:39:52.537Z,101302.21
2023-05-05T13:42:22.288Z,101303.54
2023-05-05T13:44:52.076Z,101305.13
2023-05-05T13:47:22.117Z,101303.82
2023-05-05T13:49:52.159Z,101303.39
2023-05-05T13:52:21.947Z,101294.93
2023-05-05T13:54:51.930Z,101284.16
2023-05-05T13:57:21.664Z,101279.82
2023-05-05T13:59:51.343Z,101281.23
2023-05-05T14:02:21.042Z,101276.39
2023-05-05T14:04:50.874Z,101276.53
2023-05-05T14:07:21.445Z,101272.29
2023-05-05T14:09:51.238Z,101268.54
2023-05-05T14:12:21.013Z,101272.61
2023-05-05T14:14:50.761Z,101268.42
2023-05-05T14:17:20.524Z,101261.50
2023-05-05T14:19:51.172Z,101266.88
2023-05-05T14:22:20.776Z,101258.45
2023-05-05T14:24:50.617Z,101254.39
2023-05-05T14:27:20.364Z,101250.35
2023-05-05T14:29:50.063Z,101245.48
2023-05-05T14:32:19.769Z,101248.73
2023-05-05T14:34:50.527Z,101249.73
2023-05-05T14:37:20.239Z,101250.93
2023-05-05T14:39:49.954Z,101250.96
2023-05-05T14:42:19.691Z,101244.34
2023-05-05T14:44:49.753Z,101248.39
2023-05-05T14:47:19.594Z,101245.58
2023-05-05T14:49:49.305Z,101240.73
2023-05-05T14:52:19.043Z,101242.36
2023-05-05T14:54:48.743Z,101244.84
2023-05-05T14:57:18.532Z,101247.51
2023-05-05T14:59:51.373Z,101245.14
2023-05-05T15:02:21.424Z,101245.66
2023-05-05T15:04:52.987Z,101246.87
2023-05-05T15:07:28.276Z,101242.05
2023-05-05T15:09:58.078Z,101243.73
2023-05-05T15:12:27.899Z,101242.14
2023-05-05T15:14:57.731Z,101237.30
2023-05-05T15:17:27.622Z,101232.70
2023-05-05T15:19:57.539Z,101229.41
2023-05-05T15:22:27.381Z,101229.04
2023-05-05T15:24:57.125Z,101228.27
2023-05-05T15:27:27.425Z,101231.16
2023-05-05T15:29:57.804Z,101224.16
2023-05-05T15:32:28.367Z,101218.80
2023-05-05T15:34:58.078Z,101222.06
2023-05-05T15:37:28.899Z,101217.36
2023-05-05T15:39:58.993Z,101216.27
2023-05-05T15:42:29.097Z,101218.25
2023-05-05T15:45:00.854Z,101214.98
2023-05-05T15:47:30.742Z,101216.60
2023-05-05T15:50:00.724Z,101216.77
2023-05-05T15:52:30.650Z,101215.46
2023-05-05T15:55:01.531Z,101222.42
2023-05-05T15:57:31.504Z,101219.05
2023-05-05T16:00:01.941Z,101214.64
2023-05-05T16:02:31.811Z,101215.46
2023-05-05T16:05:01.898Z,101210.61
2023-05-05T16:07:31.926Z,101211.84
2023-05-05T16:10:01.876Z,101213.69
2023-05-05T16:12:31.880Z,101214.00
2023-05-05T16:15:01.809Z,101213.55
2023-05-05T16:17:31.591Z,101214.64
2023-05-05T16:20:01.666Z,101213.09
2023-05-05T16:22:31.558Z,101212.27
2023-05-05T16:25:00.068Z,101212.57
2023-05-05T16:27:28.346Z,101214.23
2023-05-05T16:29:58.507Z,101216.25
2023-05-05T16:32:28.356Z,101216.19
2023-05-05T16:34:56.894Z,101213.98
2023-05-05T16:37:25.065Z,101213.52
2023-05-05T16:39:53.351Z,101212.27
2023-05-05T16:42:22.570Z,101214.10
2023-05-05T16:44:50.347Z,101217.71
2023-05-05T16:47:18.697Z,101214.09
2023-05-05T16:49:47.103Z,101212.30
2023-05-05T16:52:15.793Z,101214.59
2023-05-05T16:54:44.149Z,101215.36
2023-05-05T16:57:12.942Z,101215.05
2023-05-05T16:59:41.729Z,101218.13
2023-05-05T17:02:09.455Z,101214.80
2023-05-05T17:04:37.569Z,101211.80
2023-05-05T17:07:06.129Z,101211.27
2023-05-05T17:09:34.488Z,101207.04
2023-05-05T17:12:05.578Z,101202.30
2023-05-05T17:14:35.478Z,101203.58
2023-05-05T17:17:05.607Z,101208.95
2023-05-05T17:19:35.431Z,101205.06
2023-05-05T17:22:05.317Z,101204.92
2023-05-05T17:24:35.075Z,101206.55
2023-05-05T17:27:04.902Z,101203.90
2023-05-05T17:29:40.460Z,101206.41
2023-05-05T17:32:09.834Z,101206.27
2023-05-05T17:34:38.388Z,101204.69
2023-05-05T17:37:06.607Z,101205.77
2023-05-05T17:39:35.377Z,101205.61
2023-05-05T17:42:03.961Z,101209.36
2023-05-05T17:44:32.656Z,101209.04
2023-05-05T17:47:02.680Z,101211.89
2023-05-05T17:49:32.250Z,101209.08
2023-05-05T17:52:00.949Z,101212.30
2023-05-05T17:54:29.338Z,101206.25
2023-05-05T17:56:59.571Z,101207.50
2023-05-05T17:59:27.130Z,101209.82
2023-05-05T18:01:55.759Z,101213.39
2023-05-05T18:04:24.338Z,101214.30
2023-05-05T18:06:57.376Z,101212.37
2023-05-05T18:09:27.425Z,101208.99
2023-05-05T18:11:57.863Z,101207.23
2023-05-05T18:14:27.499Z,101212.23
2023-05-05T18:16:57.347Z,101211.54
2023-05-05T18:19:27.171Z,101214.75
2023-05-05T18:21:59.850Z,101219.55
2023-05-05T18:24:29.731Z,101221.33
2023-05-05T18:26:59.653Z,101225.61
2023-05-05T18:29:29.544Z,101222.59
2023-05-05T18:31:59.423Z,101221.53
2023-05-05T18:34:29.587Z,101228.09
2023-05-05T18:37:00.336Z,101227.39
2023-05-05T18:39:30.362Z,101236.08
2023-05-05T18:42:00.436Z,101235.00
2023-05-05T18:44:32.662Z,101234.28
2023-05-05T18:47:02.604Z,101232.67
2023-05-05T18:49:32.849Z,101240.11
2023-05-05T18:52:02.986Z,101241.33
2023-05-05T18:54:32.756Z,101244.17
2023-05-05T18:57:03.532Z,101251.25
2023-05-05T18:59:33.318Z,101252.12
2023-05-05T19:02:03.460Z,101259.02
2023-05-05T19:04:36.431Z,101270.52
2023-05-05T19:07:07.049Z,101265.02
2023-05-05T19:09:35.203Z,101265.01
2023-05-05T19:12:04.760Z,101264.81
2023-05-05T19:14:34.581Z,101265.10
2023-05-05T19:17:03.626Z,101263.25
2023-05-05T19:19:31.362Z,101260.93
2023-05-05T19:22:02.096Z,101257.55
2023-05-05T19:24:35.525Z,101258.61
2023-05-05T19:27:05.364Z,101261.41
2023-05-05T19:29:35.198Z,101265.11
2023-05-05T19:32:05.680Z,101272.54
2023-05-05T19:34:35.396Z,101278.73
2023-05-05T19:37:05.306Z,101289.45
2023-05-05T19:39:35.296Z,101294.38
2023-05-05T19:42:06.266Z,101289.36
2023-05-05T19:44:36.176Z,101291.13
2023-05-05T19:47:06.000Z,101294.29
2023-05-05T19:49:36.176Z,101291.41
2023-05-05T19:52:06.130Z,101287.65
2023-05-05T19:54:36.232Z,101287.99
2023-05-05T19:57:07.261Z,101287.97
2023-05-05T19:59:37.003Z,101282.11
2023-05-05T20:02:06.730Z,101283.13
2023-05-05T20:04:36.497Z,101279.93
2023-05-05T20:07:06.321Z,101282.71
2023-05-05T20:09:37.691Z,101283.55
2023-05-05T20:12:14.123Z,101282.64
2023-05-05T20:14:43.809Z,101283.84
2023-05-05T20:17:15.408Z,101288.59
2023-05-05T20:19:45.424Z,101287.84
2023-05-05T20:22:15.466Z,101296.45
2023-05-05T20:24:45.234Z,101298.73
2023-05-05T20:27:15.081Z,101298.51
2023-05-05T20:29:44.799Z,101293.67
2023-05-05T20:32:14.851Z,101289.23
2023-05-05T20:34:42.906Z,101287.77
2023-05-05T20:37:12.424Z,101287.77
2023-05-05T20:39:43.698Z,101285.23
2023-05-05T20:42:14.833Z,101281.83
2023-05-05T20:44:44.913Z,101280.73
2023-05-05T20:47:14.681Z,101283.19
2023-05-05T20:49:44.549Z,101282.42
2023-05-05T20:52:14.317Z,101285.21
2023-05-05T20:54:44.077Z,101294.92
2023-05-05T20:57:13.919Z,101296.61
2023-05-05T20:59:43.857Z,101302.38
2023-05-05T21:02:13.644Z,101293.36
2023-05-05T21:04:43.563Z,101291.23
2023-05-05T21:07:13.441Z,101288.70
2023-05-05T21:09:46.995Z,101287.73
2023-05-05T21:12:16.630Z,101291.54
2023-05-05T21:14:46.422Z,101289.49
2023-05-05T21:17:14.840Z,101286.25
2023-05-05T21:19:43.408Z,101286.33
2023-05-05T21:22:11.729Z,101289.24
2023-05-05T21:24:40.462Z,101288.80
2023-05-05T21:27:08.990Z,101287.50
2023-05-05T21:29:37.907Z,101288.63
2023-05-05T21:32:08.895Z,101287.23
2023-05-05T21:34:39.211Z,101281.45
2023-05-05T21:37:08.454Z,101279.89
2023-05-05T21:39:36.860Z,101283.19
2023-05-05T21:42:09.179Z,101286.30
2023-05-05T21:44:39.139Z,101289.19
2023-05-05T21:47:10.313Z,101288.41
2023-05-05T21:49:40.034Z,101291.86
2023-05-05T21:52:10.082Z,101295.52
2023-05-05T21:54:40.713Z,101293.45
2023-05-05T21:57:10.564Z,101290.47
2023-05-05T21:59:41.212Z,101297.58
2023-05-05T22:02:11.059Z,101304.21
2023-05-05T22:04:40.831Z,101313.15
2023-05-05T22:07:10.586Z,101325.08
2023-05-05T22:09:40.434Z,101329.05
2023-05-05T22:12:14.987Z,101334.61
2023-05-05T22:14:44.749Z,101331.27
2023-05-05T22:17:14.517Z,101331.86
2023-05-05T22:19:44.235Z,101328.09
2023-05-05T22:22:14.054Z,101320.67
2023-05-05T22:24:43.776Z,101317.08
2023-05-05T22:27:13.623Z,101317.27
2023-05-05T22:29:43.399Z,101320.73
2023-05-05T22:32:13.179Z,101318.67
2023-05-05T22:34:43.006Z,101322.86
2023-05-05T22:37:14.248Z,101332.05
2023-05-05T22:39:44.299Z,101332.13
2023-05-05T22:42:18.370Z,101330.10
2023-05-05T22:44:45.411Z,101327.71
2023-05-05T22:47:13.963Z,101328.30
2023-05-05T22:49:42.430Z,101322.23
2023-05-05T22:52:11.522Z,101314.98
2023-05-05T22:54:39.131Z,101313.57
2023-05-05T22:57:07.637Z,101310.15
2023-05-05T22:59:36.092Z,101305.09
2023-05-05T23:02:05.200Z,101303.18
2023-05-05T23:04:32.774Z,101299.73
2023-05-05T23:07:01.180Z,101291.68
2023-05-05T23:09:29.642Z,101291.69
2023-05-05T23:11:58.068Z,101281.96
2023-05-05T23:14:26.471Z,101284.37
2023-05-05T23:16:54.906Z,101292.02
2023-05-05T23:19:24.298Z,101292.64
2023-05-05T23:21:53.606Z,101293.27
2023-05-05T23:24:23.682Z,101290.70
2023-05-05T23:26:53.872Z,101290.31
2023-05-05T23:29:23.675Z,101287.83
2023-05-05T23:31:53.473Z,101288.93
2023-05-05T23:34:23.756Z,101293.45
2023-05-05T23:36:53.571Z,101293.63
2023-05-05T23:39:23.414Z,101295.65
2023-05-05T23:41:53.135Z,101293.83
2023-05-05T23:44:22.876Z,101293.99
2023-05-05T23:46:52.627Z,101300.74
2023-05-05T23:49:23.761Z,101297.80
2023-05-05T23:51:53.526Z,101293.83
2023-05-05T23:54:23.309Z,101296.87
2023-05-05T23:56:53.066Z,101292.33
2023-05-05T23:59:22.849Z,101296.30
